Airfield :







YOU CAN JOIN US ON...

 
LOGIN :

Register | Disclaimer

   EN    FR    IT 

 









Legend :    VFR   Marginal VFR   IFR   Intensive IFR   Very Intensive IFR
Visi :
Ceiling :
>= 8 km
>= 3000ft
5 to 8 km
1000 to 3000 ft
1500m to 5 km
500 to 1000 ft
800 to 1500m
200 to 500 ft
< 800m
< 200 ft
Symbols :   Thunderstorms  Fog  Heavy snow  Heavy precipitations  Wind > 20 kt






- Airport Elevation : 199 ft


KASH - Boire Field

CURRENT METAR :
  • 260056Z 08008KT 2 1/2SM RA BR OVC007 06/06 A2984 RMK AO2 SLP111 PRESFR T00560056 PNO $

EXPIRED METARs :
  • 252356Z 10008G20KT 5SM -RA BR OVC007 04/04 A2992 RMK AO2 SLP139 PRESFR 6//// T00440044 10044 20028 58039 PNO $
  • 252256Z COR 10007G18KT 4SM -RA OVC007 04/04 A2998 RMK AO2 SLP158 P0000 T00440044

TAF N/A



MET'MAP, your aeronautical weather chart ! - Copyright ORBIFLY December 2007 - Disclaimer

ORBIFLY MET'MAP TEAM :

Programming & Development : Alexandra Zaïnal
Concept & original design : Baudouin d'Aumeries
Assistance for programming : Marc-Olivier Méhu
Technical & hardware support : Manuel Goepfert

Contact : metmap@orbifly.com




SOURCES & CREDITS :

   NOAA